Terminal Aerodrome Forecast
Issued by NWS Milwaukee/Sullivan, WI

Home | Current Version | Previous Version | Text Only | Print | Product List | Glossary On
Versions: 1 2 3 4 5 6 7 8 9 10 11 12 13 14 15 16 17 18 19 20 21 22 23 24 25 26 27 28 29 30 31 32 33 34 35 36 37 38 39 40 41 42 43 44 45 46
000
FTUS43 KMKX 290520
TAFMSN
TAF
KMSN 290520Z 2906/3006 07005KT P6SM SKC
     FM290800 07005KT 2SM BR BKN003
     FM291300 07009KT 5SM BR BKN008 OVC150
     FM291400 07011KT P6SM SCT010 BKN120
     FM292000 08013KT P6SM OVC060
     FM300100 07010KT P6SM VCSH OVC030
     FM300300 07010KT P6SM -RA OVC030=

USA.gov is the U.S. government's official web portal to all federal, state and local government web resources and services.